sensor_id;sensor_type;location;lat;lon;timestamp;temperature;humidity
55207;DHT22;41079;52.856;6.534;2022-10-16T00:04:18;12.30;99.90
55207;DHT22;41079;52.856;6.534;2022-10-16T00:06:55;12.30;99.90
55207;DHT22;41079;52.856;6.534;2022-10-16T00:13:20;12.30;99.90
55207;DHT22;41079;52.856;6.534;2022-10-16T00:19:27;12.30;99.90
55207;DHT22;41079;52.856;6.534;2022-10-16T00:22:19;12.30;99.90
55207;DHT22;41079;52.856;6.534;2022-10-16T00:25:08;12.30;99.90
55207;DHT22;41079;52.856;6.534;2022-10-16T00:31:16;12.30;99.90
55207;DHT22;41079;52.856;6.534;2022-10-16T00:37:42;12.30;99.90
55207;DHT22;41079;52.856;6.534;2022-10-16T00:47:34;12.30;99.90
55207;DHT22;41079;52.856;6.534;2022-10-16T00:50:22;12.30;99.90
55207;DHT22;41079;52.856;6.534;2022-10-16T00:56:37;12.30;99.90
55207;DHT22;41079;52.856;6.534;2022-10-16T01:09:13;12.30;99.90
55207;DHT22;41079;52.856;6.534;2022-10-16T01:19:26;12.40;99.90
55207;DHT22;41079;52.856;6.534;2022-10-16T01:36:56;12.60;99.90
55207;DHT22;41079;52.856;6.534;2022-10-16T01:50:26;12.60;99.90
55207;DHT22;41079;52.856;6.534;2022-10-16T02:08:22;12.60;99.90
55207;DHT22;41079;52.856;6.534;2022-10-16T02:11:02;12.50;99.90
55207;DHT22;41079;52.856;6.534;2022-10-16T02:31:08;12.60;99.90
55207;DHT22;41079;52.856;6.534;2022-10-16T02:37:16;12.60;99.90
55207;DHT22;41079;52.856;6.534;2022-10-16T02:46:50;12.60;99.90
55207;DHT22;41079;52.856;6.534;2022-10-16T02:53:03;12.60;99.90
55207;DHT22;41079;52.856;6.534;2022-10-16T02:59:09;12.60;99.90
55207;DHT22;41079;52.856;6.534;2022-10-16T03:12:38;12.60;99.90
55207;DHT22;41079;52.856;6.534;2022-10-16T03:15:04;12.60;99.90
55207;DHT22;41079;52.856;6.534;2022-10-16T03:21:10;12.60;99.90
55207;DHT22;41079;52.856;6.534;2022-10-16T03:27:16;12.70;99.90
55207;DHT22;41079;52.856;6.534;2022-10-16T03:33:23;12.70;99.90
55207;DHT22;41079;52.856;6.534;2022-10-16T03:49:56;12.70;99.90
55207;DHT22;41079;52.856;6.534;2022-10-16T04:07:13;12.50;99.90
55207;DHT22;41079;52.856;6.534;2022-10-16T04:20:33;12.40;99.90
55207;DHT22;41079;52.856;6.534;2022-10-16T04:29:59;12.30;99.90
55207;DHT22;41079;52.856;6.534;2022-10-16T04:32:29;12.30;99.90
55207;DHT22;41079;52.856;6.534;2022-10-16T04:38:35;12.30;99.90
55207;DHT22;41079;52.856;6.534;2022-10-16T04:41:11;12.20;99.90
55207;DHT22;41079;52.856;6.534;2022-10-16T04:43:52;12.20;99.90
55207;DHT22;41079;52.856;6.534;2022-10-16T04:46:21;12.20;99.90
55207;DHT22;41079;52.856;6.534;2022-10-16T04:48:50;12.20;99.90
55207;DHT22;41079;52.856;6.534;2022-10-16T04:51:32;12.20;99.90
55207;DHT22;41079;52.856;6.534;2022-10-16T04:53:57;12.30;99.90
55207;DHT22;41079;52.856;6.534;2022-10-16T05:00:17;12.40;99.90
55207;DHT22;41079;52.856;6.534;2022-10-16T05:10:26;12.50;99.90
55207;DHT22;41079;52.856;6.534;2022-10-16T05:16:32;12.60;99.90
55207;DHT22;41079;52.856;6.534;2022-10-16T05:25:57;12.50;99.90
55207;DHT22;41079;52.856;6.534;2022-10-16T05:43:07;12.40;99.90
55207;DHT22;41079;52.856;6.534;2022-10-16T05:49:05;12.50;99.90
55207;DHT22;41079;52.856;6.534;2022-10-16T05:51:31;12.50;99.90
55207;DHT22;41079;52.856;6.534;2022-10-16T05:53:56;12.50;99.90
55207;DHT22;41079;52.856;6.534;2022-10-16T05:56:22;12.50;99.90
55207;DHT22;41079;52.856;6.534;2022-10-16T05:58:47;12.50;99.90
55207;DHT22;41079;52.856;6.534;2022-10-16T06:01:18;12.50;99.90
55207;DHT22;41079;52.856;6.534;2022-10-16T06:03:44;12.50;99.90
55207;DHT22;41079;52.856;6.534;2022-10-16T06:06:13;12.50;99.90
55207;DHT22;41079;52.856;6.534;2022-10-16T06:08:39;12.50;99.90
55207;DHT22;41079;52.856;6.534;2022-10-16T06:11:07;12.50;99.90
55207;DHT22;41079;52.856;6.534;2022-10-16T06:13:33;12.50;99.90
55207;DHT22;41079;52.856;6.534;2022-10-16T06:15:59;12.50;99.90
55207;DHT22;41079;52.856;6.534;2022-10-16T06:18:26;12.50;99.90
55207;DHT22;41079;52.856;6.534;2022-10-16T06:20:54;12.50;99.90
55207;DHT22;41079;52.856;6.534;2022-10-16T06:23:21;12.50;99.90
55207;DHT22;41079;52.856;6.534;2022-10-16T06:25:46;12.50;99.90
55207;DHT22;41079;52.856;6.534;2022-10-16T06:28:14;12.50;99.90
55207;DHT22;41079;52.856;6.534;2022-10-16T06:30:41;12.50;99.90
55207;DHT22;41079;52.856;6.534;2022-10-16T06:33:09;12.60;99.90
55207;DHT22;41079;52.856;6.534;2022-10-16T06:35:35;12.60;99.90
55207;DHT22;41079;52.856;6.534;2022-10-16T06:38:01;12.60;99.90
55207;DHT22;41079;52.856;6.534;2022-10-16T06:40:26;12.60;99.90
55207;DHT22;41079;52.856;6.534;2022-10-16T06:42:54;12.60;99.90
55207;DHT22;41079;52.856;6.534;2022-10-16T06:45:25;12.60;99.90
55207;DHT22;41079;52.856;6.534;2022-10-16T06:47:51;12.70;99.90
55207;DHT22;41079;52.856;6.534;2022-10-16T06:50:16;12.70;99.90
55207;DHT22;41079;52.856;6.534;2022-10-16T06:52:42;12.70;99.90
55207;DHT22;41079;52.856;6.534;2022-10-16T06:55:07;12.70;99.90
55207;DHT22;41079;52.856;6.534;2022-10-16T06:57:36;12.70;99.90
55207;DHT22;41079;52.856;6.534;2022-10-16T07:00:20;12.70;99.90
55207;DHT22;41079;52.856;6.534;2022-10-16T07:02:46;12.70;99.90
55207;DHT22;41079;52.856;6.534;2022-10-16T07:05:16;12.80;99.90
55207;DHT22;41079;52.856;6.534;2022-10-16T07:07:41;12.80;99.90
55207;DHT22;41079;52.856;6.534;2022-10-16T07:10:07;12.80;99.90
55207;DHT22;41079;52.856;6.534;2022-10-16T07:12:34;12.80;99.90
55207;DHT22;41079;52.856;6.534;2022-10-16T07:15:02;12.80;99.90
55207;DHT22;41079;52.856;6.534;2022-10-16T07:17:27;12.90;99.90
55207;DHT22;41079;52.856;6.534;2022-10-16T07:19:53;12.90;99.90
55207;DHT22;41079;52.856;6.534;2022-10-16T07:22:22;12.90;99.90
55207;DHT22;41079;52.856;6.534;2022-10-16T07:25:08;13.00;99.90
55207;DHT22;41079;52.856;6.534;2022-10-16T07:27:36;13.00;99.90
55207;DHT22;41079;52.856;6.534;2022-10-16T07:30:14;13.10;99.90
55207;DHT22;41079;52.856;6.534;2022-10-16T07:32:58;13.20;99.90
55207;DHT22;41079;52.856;6.534;2022-10-16T07:35:30;13.20;99.90
55207;DHT22;41079;52.856;6.534;2022-10-16T07:37:57;13.20;99.90
55207;DHT22;41079;52.856;6.534;2022-10-16T07:43:38;13.30;99.90
55207;DHT22;41079;52.856;6.534;2022-10-16T07:46:04;13.30;99.90
55207;DHT22;41079;52.856;6.534;2022-10-16T07:48:31;13.30;99.90
55207;DHT22;41079;52.856;6.534;2022-10-16T07:51:28;13.30;99.90
55207;DHT22;41079;52.856;6.534;2022-10-16T07:53:54;13.40;99.90
55207;DHT22;41079;52.856;6.534;2022-10-16T07:56:21;13.40;99.90
55207;DHT22;41079;52.856;6.534;2022-10-16T07:58:46;13.40;99.90
55207;DHT22;41079;52.856;6.534;2022-10-16T08:01:13;13.50;99.90
55207;DHT22;41079;52.856;6.534;2022-10-16T08:03:49;13.50;99.90
55207;DHT22;41079;52.856;6.534;2022-10-16T08:06:16;13.60;99.90
55207;DHT22;41079;52.856;6.534;2022-10-16T08:08:42;13.60;99.90
55207;DHT22;41079;52.856;6.534;2022-10-16T08:11:18;13.70;99.90
55207;DHT22;41079;52.856;6.534;2022-10-16T08:16:49;13.90;99.90
55207;DHT22;41079;52.856;6.534;2022-10-16T08:19:14;14.00;99.90
55207;DHT22;41079;52.856;6.534;2022-10-16T08:21:41;14.10;99.90
55207;DHT22;41079;52.856;6.534;2022-10-16T08:24:06;14.20;99.90
55207;DHT22;41079;52.856;6.534;2022-10-16T08:26:36;14.20;99.90
55207;DHT22;41079;52.856;6.534;2022-10-16T08:29:27;14.30;99.90
55207;DHT22;41079;52.856;6.534;2022-10-16T08:31:56;14.30;99.90
55207;DHT22;41079;52.856;6.534;2022-10-16T08:34:35;14.40;99.90
55207;DHT22;41079;52.856;6.534;2022-10-16T08:37:04;14.40;99.90
55207;DHT22;41079;52.856;6.534;2022-10-16T08:39:29;14.50;99.90
55207;DHT22;41079;52.856;6.534;2022-10-16T08:45:14;14.70;99.90
55207;DHT22;41079;52.856;6.534;2022-10-16T08:50:51;14.90;99.90
55207;DHT22;41079;52.856;6.534;2022-10-16T08:53:28;15.00;99.90
55207;DHT22;41079;52.856;6.534;2022-10-16T08:55:55;15.30;99.90
55207;DHT22;41079;52.856;6.534;2022-10-16T08:58:25;15.60;99.90
55207;DHT22;41079;52.856;6.534;2022-10-16T09:01:03;15.80;99.90
55207;DHT22;41079;52.856;6.534;2022-10-16T09:06:58;15.90;99.90
55207;DHT22;41079;52.856;6.534;2022-10-16T09:12:26;16.00;99.90
55207;DHT22;41079;52.856;6.534;2022-10-16T09:18:37;16.10;99.90
55207;DHT22;41079;52.856;6.534;2022-10-16T09:21:23;16.20;99.90
55207;DHT22;41079;52.856;6.534;2022-10-16T09:23:54;16.20;99.90
55207;DHT22;41079;52.856;6.534;2022-10-16T09:26:26;16.20;99.90
55207;DHT22;41079;52.856;6.534;2022-10-16T09:28:52;16.30;99.90
55207;DHT22;41079;52.856;6.534;2022-10-16T09:31:31;16.30;99.90
55207;DHT22;41079;52.856;6.534;2022-10-16T09:34:00;16.40;99.90
55207;DHT22;41079;52.856;6.534;2022-10-16T09:36:40;16.40;99.90
55207;DHT22;41079;52.856;6.534;2022-10-16T09:39:09;16.50;99.90
55207;DHT22;41079;52.856;6.534;2022-10-16T09:41:37;16.50;99.90
55207;DHT22;41079;52.856;6.534;2022-10-16T09:44:13;16.70;99.90
55207;DHT22;41079;52.856;6.534;2022-10-16T09:46:43;16.80;99.90
55207;DHT22;41079;52.856;6.534;2022-10-16T09:49:26;16.90;99.90
55207;DHT22;41079;52.856;6.534;2022-10-16T09:52:13;17.00;99.90
55207;DHT22;41079;52.856;6.534;2022-10-16T09:54:53;16.90;99.90
55207;DHT22;41079;52.856;6.534;2022-10-16T09:57:23;17.00;99.90
55207;DHT22;41079;52.856;6.534;2022-10-16T09:59:59;16.90;99.90
55207;DHT22;41079;52.856;6.534;2022-10-16T10:02:34;16.90;99.90
55207;DHT22;41079;52.856;6.534;2022-10-16T10:05:17;16.90;99.90
55207;DHT22;41079;52.856;6.534;2022-10-16T10:08:02;16.90;99.90
55207;DHT22;41079;52.856;6.534;2022-10-16T10:10:42;16.90;99.90
55207;DHT22;41079;52.856;6.534;2022-10-16T10:13:22;17.00;99.90
55207;DHT22;41079;52.856;6.534;2022-10-16T10:15:50;17.10;99.90
55207;DHT22;41079;52.856;6.534;2022-10-16T10:18:18;17.20;99.90
55207;DHT22;41079;52.856;6.534;2022-10-16T10:20:59;17.30;99.90
55207;DHT22;41079;52.856;6.534;2022-10-16T10:23:26;17.40;99.90
55207;DHT22;41079;52.856;6.534;2022-10-16T10:26:05;17.30;99.90
55207;DHT22;41079;52.856;6.534;2022-10-16T10:31:53;17.10;99.90
55207;DHT22;41079;52.856;6.534;2022-10-16T10:40:11;17.50;99.90
55207;DHT22;41079;52.856;6.534;2022-10-16T10:45:36;17.50;99.90
55207;DHT22;41079;52.856;6.534;2022-10-16T10:50:57;17.90;99.90
55207;DHT22;41079;52.856;6.534;2022-10-16T10:54:11;17.90;99.90
55207;DHT22;41079;52.856;6.534;2022-10-16T10:57:02;17.70;99.90
55207;DHT22;41079;52.856;6.534;2022-10-16T11:00:20;17.50;99.90
55207;DHT22;41079;52.856;6.534;2022-10-16T11:06:07;17.40;99.90
55207;DHT22;41079;52.856;6.534;2022-10-16T11:08:48;17.60;99.90
55207;DHT22;41079;52.856;6.534;2022-10-16T11:11:32;17.50;99.90
55207;DHT22;41079;52.856;6.534;2022-10-16T11:14:13;17.70;99.90
55207;DHT22;41079;52.856;6.534;2022-10-16T11:16:49;17.90;99.90
55207;DHT22;41079;52.856;6.534;2022-10-16T11:19:41;18.00;99.90
55207;DHT22;41079;52.856;6.534;2022-10-16T11:22:48;18.10;99.90
55207;DHT22;41079;52.856;6.534;2022-10-16T11:27:48;18.40;99.90
55207;DHT22;41079;52.856;6.534;2022-10-16T11:30:24;18.40;99.90
55207;DHT22;41079;52.856;6.534;2022-10-16T11:36:17;18.40;99.90
55207;DHT22;41079;52.856;6.534;2022-10-16T11:38:49;18.40;99.90
55207;DHT22;41079;52.856;6.534;2022-10-16T11:41:29;18.50;99.90
55207;DHT22;41079;52.856;6.534;2022-10-16T11:44:02;18.60;99.90
55207;DHT22;41079;52.856;6.534;2022-10-16T11:46:33;18.70;99.90
55207;DHT22;41079;52.856;6.534;2022-10-16T11:49:16;18.80;99.90
55207;DHT22;41079;52.856;6.534;2022-10-16T11:51:50;18.60;99.90
55207;DHT22;41079;52.856;6.534;2022-10-16T11:57:14;18.10;99.90
55207;DHT22;41079;52.856;6.534;2022-10-16T11:59:42;17.90;99.90
55207;DHT22;41079;52.856;6.534;2022-10-16T12:02:38;18.00;99.90
55207;DHT22;41079;52.856;6.534;2022-10-16T12:05:11;18.30;99.90
55207;DHT22;41079;52.856;6.534;2022-10-16T12:07:46;18.50;99.90
55207;DHT22;41079;52.856;6.534;2022-10-16T12:10:22;18.50;99.90
55207;DHT22;41079;52.856;6.534;2022-10-16T12:12:48;18.70;99.90
55207;DHT22;41079;52.856;6.534;2022-10-16T12:15:20;18.80;99.90
55207;DHT22;41079;52.856;6.534;2022-10-16T12:17:47;18.50;99.90
55207;DHT22;41079;52.856;6.534;2022-10-16T12:22:54;18.40;99.90
55207;DHT22;41079;52.856;6.534;2022-10-16T12:25:40;18.40;99.90
55207;DHT22;41079;52.856;6.534;2022-10-16T12:30:41;18.40;99.90
55207;DHT22;41079;52.856;6.534;2022-10-16T12:35:47;18.80;99.90
55207;DHT22;41079;52.856;6.534;2022-10-16T12:38:27;18.90;99.90
55207;DHT22;41079;52.856;6.534;2022-10-16T12:41:02;18.90;99.90
55207;DHT22;41079;52.856;6.534;2022-10-16T12:46:03;19.20;99.90
55207;DHT22;41079;52.856;6.534;2022-10-16T12:48:30;19.40;99.90
55207;DHT22;41079;52.856;6.534;2022-10-16T12:50:56;19.30;99.70
55207;DHT22;41079;52.856;6.534;2022-10-16T12:53:24;18.90;99.90
55207;DHT22;41079;52.856;6.534;2022-10-16T12:59:01;18.90;99.90
55207;DHT22;41079;52.856;6.534;2022-10-16T13:12:10;19.60;99.90
55207;DHT22;41079;52.856;6.534;2022-10-16T13:15:02;19.60;98.20
55207;DHT22;41079;52.856;6.534;2022-10-16T13:17:37;19.50;95.40
55207;DHT22;41079;52.856;6.534;2022-10-16T13:22:58;19.10;96.10
55207;DHT22;41079;52.856;6.534;2022-10-16T13:28:10;18.90;97.80
55207;DHT22;41079;52.856;6.534;2022-10-16T13:30:42;18.70;97.20
55207;DHT22;41079;52.856;6.534;2022-10-16T13:33:15;18.40;96.60
55207;DHT22;41079;52.856;6.534;2022-10-16T13:35:54;18.10;98.40
55207;DHT22;41079;52.856;6.534;2022-10-16T13:38:22;17.90;98.90
55207;DHT22;41079;52.856;6.534;2022-10-16T13:41:03;18.00;99.70
55207;DHT22;41079;52.856;6.534;2022-10-16T13:43:36;18.20;99.90
55207;DHT22;41079;52.856;6.534;2022-10-16T13:46:14;18.40;99.90
55207;DHT22;41079;52.856;6.534;2022-10-16T13:48:41;18.50;99.90
55207;DHT22;41079;52.856;6.534;2022-10-16T13:51:14;18.60;99.90
55207;DHT22;41079;52.856;6.534;2022-10-16T13:53:40;18.70;99.90
55207;DHT22;41079;52.856;6.534;2022-10-16T13:56:11;18.70;99.90
55207;DHT22;41079;52.856;6.534;2022-10-16T13:58:37;18.60;99.90
55207;DHT22;41079;52.856;6.534;2022-10-16T14:01:23;18.50;99.90
55207;DHT22;41079;52.856;6.534;2022-10-16T14:03:50;18.50;99.90
55207;DHT22;41079;52.856;6.534;2022-10-16T14:06:21;18.60;99.90
55207;DHT22;41079;52.856;6.534;2022-10-16T14:11:33;18.70;99.90
55207;DHT22;41079;52.856;6.534;2022-10-16T14:14:00;18.70;99.90
55207;DHT22;41079;52.856;6.534;2022-10-16T14:16:30;18.60;99.90
55207;DHT22;41079;52.856;6.534;2022-10-16T14:19:04;18.50;99.90
55207;DHT22;41079;52.856;6.534;2022-10-16T14:21:35;18.30;99.90
55207;DHT22;41079;52.856;6.534;2022-10-16T14:24:12;18.10;99.90
55207;DHT22;41079;52.856;6.534;2022-10-16T14:26:44;17.80;99.90
55207;DHT22;41079;52.856;6.534;2022-10-16T14:29:13;17.70;99.90
55207;DHT22;41079;52.856;6.534;2022-10-16T14:31:39;17.60;99.90
55207;DHT22;41079;52.856;6.534;2022-10-16T14:34:52;17.50;99.90
55207;DHT22;41079;52.856;6.534;2022-10-16T14:37:21;17.40;99.90
55207;DHT22;41079;52.856;6.534;2022-10-16T14:39:52;17.30;99.90
55207;DHT22;41079;52.856;6.534;2022-10-16T14:42:20;17.30;99.90
55207;DHT22;41079;52.856;6.534;2022-10-16T14:44:49;17.20;99.90
55207;DHT22;41079;52.856;6.534;2022-10-16T14:47:19;17.10;99.90
55207;DHT22;41079;52.856;6.534;2022-10-16T14:49:50;17.00;99.90
55207;DHT22;41079;52.856;6.534;2022-10-16T14:52:16;17.00;99.90
55207;DHT22;41079;52.856;6.534;2022-10-16T14:54:42;16.90;99.90
55207;DHT22;41079;52.856;6.534;2022-10-16T14:57:38;16.90;99.90
55207;DHT22;41079;52.856;6.534;2022-10-16T15:00:16;16.80;99.90
55207;DHT22;41079;52.856;6.534;2022-10-16T15:02:42;16.80;99.90
55207;DHT22;41079;52.856;6.534;2022-10-16T15:07:40;16.70;99.90
55207;DHT22;41079;52.856;6.534;2022-10-16T15:10:05;16.70;99.90
55207;DHT22;41079;52.856;6.534;2022-10-16T15:12:31;16.70;99.90
55207;DHT22;41079;52.856;6.534;2022-10-16T15:14:56;16.60;99.90
55207;DHT22;41079;52.856;6.534;2022-10-16T15:17:22;16.60;99.90
55207;DHT22;41079;52.856;6.534;2022-10-16T15:19:48;16.60;99.90
55207;DHT22;41079;52.856;6.534;2022-10-16T15:22:13;16.50;99.90
55207;DHT22;41079;52.856;6.534;2022-10-16T15:24:39;16.40;99.90
55207;DHT22;41079;52.856;6.534;2022-10-16T15:27:05;16.40;99.90
55207;DHT22;41079;52.856;6.534;2022-10-16T15:29:30;16.30;99.90
55207;DHT22;41079;52.856;6.534;2022-10-16T15:31:56;16.30;99.90
55207;DHT22;41079;52.856;6.534;2022-10-16T15:34:22;16.20;99.90
55207;DHT22;41079;52.856;6.534;2022-10-16T15:36:47;16.20;99.90
55207;DHT22;41079;52.856;6.534;2022-10-16T15:39:15;16.10;99.90
55207;DHT22;41079;52.856;6.534;2022-10-16T15:41:41;16.00;99.90
55207;DHT22;41079;52.856;6.534;2022-10-16T15:44:07;15.90;99.90
55207;DHT22;41079;52.856;6.534;2022-10-16T15:46:33;15.90;99.90
55207;DHT22;41079;52.856;6.534;2022-10-16T15:49:00;15.80;99.90
55207;DHT22;41079;52.856;6.534;2022-10-16T15:51:26;15.70;99.90
55207;DHT22;41079;52.856;6.534;2022-10-16T15:53:59;15.70;99.90
55207;DHT22;41079;52.856;6.534;2022-10-16T15:56:27;15.60;99.90
55207;DHT22;41079;52.856;6.534;2022-10-16T15:58:54;15.50;99.90
55207;DHT22;41079;52.856;6.534;2022-10-16T16:01:20;15.50;99.90
55207;DHT22;41079;52.856;6.534;2022-10-16T16:03:46;15.40;99.90
55207;DHT22;41079;52.856;6.534;2022-10-16T16:06:13;15.40;99.90
55207;DHT22;41079;52.856;6.534;2022-10-16T16:08:39;15.30;99.90
55207;DHT22;41079;52.856;6.534;2022-10-16T16:11:07;15.20;99.90
55207;DHT22;41079;52.856;6.534;2022-10-16T16:13:34;15.10;99.90
55207;DHT22;41079;52.856;6.534;2022-10-16T16:16:05;15.00;99.90
55207;DHT22;41079;52.856;6.534;2022-10-16T16:18:30;14.90;99.90
55207;DHT22;41079;52.856;6.534;2022-10-16T16:20:56;14.90;99.90
55207;DHT22;41079;52.856;6.534;2022-10-16T16:23:22;14.80;99.90
55207;DHT22;41079;52.856;6.534;2022-10-16T16:28:33;14.60;99.90
55207;DHT22;41079;52.856;6.534;2022-10-16T16:30:59;14.50;99.90
55207;DHT22;41079;52.856;6.534;2022-10-16T16:33:24;14.40;99.90
55207;DHT22;41079;52.856;6.534;2022-10-16T16:35:50;14.20;99.90
55207;DHT22;41079;52.856;6.534;2022-10-16T16:38:15;14.10;99.90
55207;DHT22;41079;52.856;6.534;2022-10-16T16:40:41;14.00;99.90
55207;DHT22;41079;52.856;6.534;2022-10-16T16:43:06;13.90;99.90
55207;DHT22;41079;52.856;6.534;2022-10-16T16:45:35;13.80;99.90
55207;DHT22;41079;52.856;6.534;2022-10-16T16:48:01;13.80;99.90
55207;DHT22;41079;52.856;6.534;2022-10-16T16:50:26;13.70;99.90
55207;DHT22;41079;52.856;6.534;2022-10-16T16:52:52;13.60;99.90
55207;DHT22;41079;52.856;6.534;2022-10-16T16:55:18;13.60;99.90
55207;DHT22;41079;52.856;6.534;2022-10-16T16:57:44;13.50;99.90
55207;DHT22;41079;52.856;6.534;2022-10-16T17:00:10;13.40;99.90
55207;DHT22;41079;52.856;6.534;2022-10-16T17:02:35;13.30;99.90
55207;DHT22;41079;52.856;6.534;2022-10-16T17:05:01;13.20;99.90
55207;DHT22;41079;52.856;6.534;2022-10-16T17:07:31;13.00;99.90
55207;DHT22;41079;52.856;6.534;2022-10-16T17:09:57;12.90;99.90
55207;DHT22;41079;52.856;6.534;2022-10-16T17:12:23;12.70;99.90
55207;DHT22;41079;52.856;6.534;2022-10-16T17:14:50;12.60;99.90
55207;DHT22;41079;52.856;6.534;2022-10-16T17:17:15;12.50;99.90
55207;DHT22;41079;52.856;6.534;2022-10-16T17:19:41;12.50;99.90
55207;DHT22;41079;52.856;6.534;2022-10-16T17:22:06;12.40;99.90
55207;DHT22;41079;52.856;6.534;2022-10-16T17:24:32;12.30;99.90
55207;DHT22;41079;52.856;6.534;2022-10-16T17:26:58;12.30;99.90
55207;DHT22;41079;52.856;6.534;2022-10-16T17:29:23;12.20;99.90
55207;DHT22;41079;52.856;6.534;2022-10-16T17:31:49;12.10;99.90
55207;DHT22;41079;52.856;6.534;2022-10-16T17:34:14;12.10;99.90
55207;DHT22;41079;52.856;6.534;2022-10-16T17:36:40;12.00;99.90
55207;DHT22;41079;52.856;6.534;2022-10-16T17:39:10;11.90;99.90
55207;DHT22;41079;52.856;6.534;2022-10-16T17:41:37;11.90;99.90
55207;DHT22;41079;52.856;6.534;2022-10-16T17:44:03;11.80;99.90
55207;DHT22;41079;52.856;6.534;2022-10-16T17:46:29;11.90;99.90
55207;DHT22;41079;52.856;6.534;2022-10-16T17:48:55;11.80;99.90
55207;DHT22;41079;52.856;6.534;2022-10-16T17:51:24;11.70;99.90
55207;DHT22;41079;52.856;6.534;2022-10-16T17:53:53;11.60;99.90
55207;DHT22;41079;52.856;6.534;2022-10-16T17:56:19;11.50;99.90
55207;DHT22;41079;52.856;6.534;2022-10-16T17:58:50;11.50;99.90
55207;DHT22;41079;52.856;6.534;2022-10-16T18:01:25;11.50;99.90
55207;DHT22;41079;52.856;6.534;2022-10-16T18:03:54;11.50;99.90
55207;DHT22;41079;52.856;6.534;2022-10-16T18:06:21;11.50;99.90
55207;DHT22;41079;52.856;6.534;2022-10-16T18:08:47;11.50;99.90
55207;DHT22;41079;52.856;6.534;2022-10-16T18:11:12;11.50;99.90
55207;DHT22;41079;52.856;6.534;2022-10-16T18:13:38;11.50;99.90
55207;DHT22;41079;52.856;6.534;2022-10-16T18:16:06;11.50;99.90
55207;DHT22;41079;52.856;6.534;2022-10-16T18:18:34;11.50;99.90
55207;DHT22;41079;52.856;6.534;2022-10-16T18:21:01;11.50;99.90
55207;DHT22;41079;52.856;6.534;2022-10-16T18:23:28;11.50;99.90
55207;DHT22;41079;52.856;6.534;2022-10-16T18:25:54;11.50;99.90
55207;DHT22;41079;52.856;6.534;2022-10-16T18:28:20;11.50;99.90
55207;DHT22;41079;52.856;6.534;2022-10-16T18:30:56;11.40;99.90
55207;DHT22;41079;52.856;6.534;2022-10-16T18:33:22;11.50;99.90
55207;DHT22;41079;52.856;6.534;2022-10-16T18:35:48;11.60;99.90
55207;DHT22;41079;52.856;6.534;2022-10-16T18:38:14;11.60;99.90
55207;DHT22;41079;52.856;6.534;2022-10-16T18:40:40;11.50;99.90
55207;DHT22;41079;52.856;6.534;2022-10-16T18:43:05;11.40;99.90
55207;DHT22;41079;52.856;6.534;2022-10-16T18:45:31;11.30;99.90
55207;DHT22;41079;52.856;6.534;2022-10-16T18:47:57;11.20;99.90
55207;DHT22;41079;52.856;6.534;2022-10-16T18:50:22;11.10;99.90
55207;DHT22;41079;52.856;6.534;2022-10-16T18:52:48;11.10;99.90
55207;DHT22;41079;52.856;6.534;2022-10-16T18:55:14;11.00;99.90
55207;DHT22;41079;52.856;6.534;2022-10-16T18:57:39;11.00;99.90
55207;DHT22;41079;52.856;6.534;2022-10-16T19:00:05;11.00;99.90
55207;DHT22;41079;52.856;6.534;2022-10-16T19:02:31;11.00;99.90
55207;DHT22;41079;52.856;6.534;2022-10-16T19:04:57;11.00;99.90
55207;DHT22;41079;52.856;6.534;2022-10-16T19:07:23;10.90;99.90
55207;DHT22;41079;52.856;6.534;2022-10-16T19:09:49;10.90;99.90
55207;DHT22;41079;52.856;6.534;2022-10-16T19:12:15;10.90;99.90
55207;DHT22;41079;52.856;6.534;2022-10-16T19:14:40;10.90;99.90
55207;DHT22;41079;52.856;6.534;2022-10-16T19:17:06;10.90;99.90
55207;DHT22;41079;52.856;6.534;2022-10-16T19:19:32;10.90;99.90
55207;DHT22;41079;52.856;6.534;2022-10-16T19:21:59;10.90;99.90
55207;DHT22;41079;52.856;6.534;2022-10-16T19:24:39;10.90;99.90
55207;DHT22;41079;52.856;6.534;2022-10-16T19:27:06;10.90;99.90
55207;DHT22;41079;52.856;6.534;2022-10-16T19:29:32;10.80;99.90
55207;DHT22;41079;52.856;6.534;2022-10-16T19:31:58;10.80;99.90
55207;DHT22;41079;52.856;6.534;2022-10-16T19:34:27;10.80;99.90
55207;DHT22;41079;52.856;6.534;2022-10-16T19:36:53;10.80;99.90
55207;DHT22;41079;52.856;6.534;2022-10-16T19:39:19;10.70;99.90
55207;DHT22;41079;52.856;6.534;2022-10-16T19:41:44;10.70;99.90
55207;DHT22;41079;52.856;6.534;2022-10-16T19:44:13;10.70;99.90
55207;DHT22;41079;52.856;6.534;2022-10-16T19:46:39;10.70;99.90
55207;DHT22;41079;52.856;6.534;2022-10-16T19:49:07;10.80;99.90
55207;DHT22;41079;52.856;6.534;2022-10-16T19:51:34;10.80;99.90
55207;DHT22;41079;52.856;6.534;2022-10-16T19:54:02;10.80;99.90
55207;DHT22;41079;52.856;6.534;2022-10-16T19:56:30;10.90;99.90
55207;DHT22;41079;52.856;6.534;2022-10-16T19:58:56;10.90;99.90
55207;DHT22;41079;52.856;6.534;2022-10-16T20:01:24;10.90;99.90
55207;DHT22;41079;52.856;6.534;2022-10-16T20:03:50;10.90;99.90
55207;DHT22;41079;52.856;6.534;2022-10-16T20:06:17;10.90;99.90
55207;DHT22;41079;52.856;6.534;2022-10-16T20:08:44;10.90;99.90
55207;DHT22;41079;52.856;6.534;2022-10-16T20:11:12;11.00;99.90
55207;DHT22;41079;52.856;6.534;2022-10-16T20:13:38;10.90;99.90
55207;DHT22;41079;52.856;6.534;2022-10-16T20:16:04;11.00;99.90
55207;DHT22;41079;52.856;6.534;2022-10-16T20:18:30;11.00;99.90
55207;DHT22;41079;52.856;6.534;2022-10-16T20:20:56;11.00;99.90
55207;DHT22;41079;52.856;6.534;2022-10-16T20:23:22;11.00;99.90
55207;DHT22;41079;52.856;6.534;2022-10-16T20:25:49;11.00;99.90
55207;DHT22;41079;52.856;6.534;2022-10-16T20:28:17;11.00;99.90
55207;DHT22;41079;52.856;6.534;2022-10-16T20:30:46;11.00;99.90
55207;DHT22;41079;52.856;6.534;2022-10-16T20:33:12;11.00;99.90
55207;DHT22;41079;52.856;6.534;2022-10-16T20:35:43;11.00;99.90
55207;DHT22;41079;52.856;6.534;2022-10-16T20:38:10;11.00;99.90
55207;DHT22;41079;52.856;6.534;2022-10-16T20:40:38;11.00;99.90
55207;DHT22;41079;52.856;6.534;2022-10-16T20:43:04;11.10;99.90
55207;DHT22;41079;52.856;6.534;2022-10-16T20:45:30;11.10;99.90
55207;DHT22;41079;52.856;6.534;2022-10-16T20:47:56;11.10;99.90
55207;DHT22;41079;52.856;6.534;2022-10-16T20:50:21;11.10;99.90
55207;DHT22;41079;52.856;6.534;2022-10-16T20:52:47;11.10;99.90
55207;DHT22;41079;52.856;6.534;2022-10-16T20:55:13;11.10;99.90
55207;DHT22;41079;52.856;6.534;2022-10-16T20:57:40;11.20;99.90
55207;DHT22;41079;52.856;6.534;2022-10-16T21:00:07;11.20;99.90
55207;DHT22;41079;52.856;6.534;2022-10-16T21:02:32;11.30;99.90
55207;DHT22;41079;52.856;6.534;2022-10-16T21:04:58;11.30;99.90
55207;DHT22;41079;52.856;6.534;2022-10-16T21:07:24;11.30;99.90
55207;DHT22;41079;52.856;6.534;2022-10-16T21:09:50;11.30;99.90
55207;DHT22;41079;52.856;6.534;2022-10-16T21:12:18;11.30;99.90